Port Dover, Canada
Current Conditions -  °F | °C
As of 6:00 PM on Monday 22 Dec 2014 (Local Time) from CYHM Reporting Station
Broken Clouds Broken Clouds  
Wind Chill: 18°   Ceiling: 25000
Heat Index: 28°   Visibility: 12mi
Dew Point: 27°   Wind: 12mph
Humidity: 93%   Direction: 50°NE
Pressure: 30.05"   Gusts: NA
Location:  42.78°N, 80.2°W
Report Text: CYHM 222300Z 05010KT 12SM FEW160 FEW200 BKN250 M02/M03 A3005 RMK AC1CI1CI4 AC TR SLP185
Loading
Personal Weather Stations






























Interactive Weather Map New forecast layout! Learn more

10-Day Weather Forecast

Advertisements
Track Severe Weather on mobile